createdAt,value
2023-02-19T00:03:06.648Z,73.53
2023-02-19T00:08:09.245Z,64.13
2023-02-19T00:13:11.894Z,69.82
2023-02-19T00:18:14.839Z,62.65
2023-02-19T00:23:17.661Z,55.10
2023-02-19T00:28:21.971Z,63.53
2023-02-19T00:33:27.099Z,54.08
2023-02-19T00:38:48.267Z,62.10
2023-02-19T00:43:57.942Z,46.83
2023-02-19T00:49:01.039Z,41.78
2023-02-19T00:54:04.771Z,40.40
2023-02-19T00:59:07.781Z,42.20
2023-02-19T01:04:10.579Z,39.67
2023-02-19T01:09:13.683Z,47.47
2023-02-19T01:14:17.142Z,41.13
2023-02-19T01:19:19.881Z,56.95
2023-02-19T01:24:22.738Z,53.90
2023-02-19T01:29:26.654Z,49.63
2023-02-19T01:34:34.285Z,54.72
2023-02-19T01:39:36.971Z,45.90
2023-02-19T01:44:43.175Z,46.35
2023-02-19T01:49:54.136Z,34.50
2023-02-19T01:54:57.221Z,44.17
2023-02-19T02:00:05.294Z,38.30
2023-02-19T02:05:23.750Z,48.80
2023-02-19T02:10:26.847Z,44.95
2023-02-19T02:15:40.789Z,38.40
2023-02-19T02:21:18.846Z,38.37
2023-02-19T02:26:39.910Z,32.65
2023-02-19T02:31:45.744Z,46.95
2023-02-19T02:36:54.059Z,40.78
2023-02-19T02:42:18.692Z,36.95
2023-02-19T02:47:53.228Z,33.30
2023-02-19T02:53:18.469Z,39.65
2023-02-19T02:58:23.961Z,38.22
2023-02-19T03:03:30.971Z,41.28
2023-02-19T03:13:58.921Z,31.63
2023-02-19T03:19:24.015Z,36.80
2023-02-19T03:24:51.990Z,39.28
2023-02-19T03:29:58.789Z,26.58
2023-02-19T03:35:15.103Z,30.55
2023-02-19T03:40:18.085Z,29.08
2023-02-19T03:45:48.550Z,32.92
2023-02-19T03:50:58.684Z,25.60
2023-02-19T03:56:34.947Z,28.35
2023-02-19T04:01:51.364Z,28.70
2023-02-19T04:06:57.174Z,29.75
2023-02-19T04:12:01.271Z,22.20
2023-02-19T04:17:09.142Z,33.13
2023-02-19T04:22:12.778Z,38.97
2023-02-19T04:27:15.871Z,42.93
2023-02-19T04:32:18.583Z,40.42
2023-02-19T04:37:22.546Z,44.15
2023-02-19T04:42:25.202Z,34.80
2023-02-19T04:47:27.849Z,37.80
2023-02-19T04:52:31.005Z,42.58
2023-02-19T04:57:34.061Z,43.47
2023-02-19T05:02:36.728Z,41.08
2023-02-19T05:07:39.357Z,48.50
2023-02-19T05:12:42.162Z,62.22
2023-02-19T05:17:44.688Z,45.97
2023-02-19T05:22:50.621Z,51.22
2023-02-19T05:28:14.655Z,52.80
2023-02-19T05:33:19.099Z,46.67
2023-02-19T05:38:22.566Z,41.33
2023-02-19T05:43:25.989Z,45.72
2023-02-19T05:48:28.560Z,38.65
2023-02-19T05:53:31.881Z,39.53
2023-02-19T05:58:34.409Z,40.08
2023-02-19T06:03:36.962Z,40.85
2023-02-19T06:08:39.567Z,51.97
2023-02-19T06:13:42.207Z,41.03
2023-02-19T06:18:45.785Z,26.80
2023-02-19T06:23:48.579Z,31.92
2023-02-19T06:28:52.498Z,27.67
2023-02-19T06:33:55.449Z,37.37
2023-02-19T06:39:01.746Z,34.40
2023-02-19T06:44:04.826Z,41.80
2023-02-19T06:49:07.531Z,48.00
2023-02-19T06:54:10.354Z,37.63
2023-02-19T06:59:16.858Z,42.33
2023-02-19T07:04:19.580Z,43.83
2023-02-19T07:09:25.545Z,28.73
2023-02-19T07:14:29.813Z,37.25
2023-02-19T07:19:32.304Z,33.88
2023-02-19T07:24:34.870Z,34.08
2023-02-19T07:29:37.375Z,33.65
2023-02-19T07:34:40.036Z,22.73
2023-02-19T07:39:42.726Z,39.67
2023-02-19T07:44:45.402Z,31.95
2023-02-19T07:49:47.981Z,42.25
2023-02-19T07:54:50.791Z,31.15
2023-02-19T07:59:53.592Z,40.75
2023-02-19T08:04:56.212Z,47.22
2023-02-19T08:10:17.753Z,37.65
2023-02-19T08:15:22.388Z,29.13
2023-02-19T08:20:25.127Z,42.53
2023-02-19T08:25:28.202Z,39.83
2023-02-19T08:30:31.893Z,29.83
2023-02-19T08:35:36.581Z,41.57
2023-02-19T08:40:40.189Z,38.95
2023-02-19T08:45:45.265Z,37.60
2023-02-19T08:51:04.335Z,26.25
2023-02-19T08:56:08.402Z,28.58
2023-02-19T09:01:16.401Z,43.47
2023-02-19T09:06:20.482Z,35.00
2023-02-19T09:11:23.153Z,36.33
2023-02-19T09:16:25.946Z,46.80
2023-02-19T09:21:29.457Z,34.97
2023-02-19T09:26:32.111Z,24.20
2023-02-19T09:31:35.353Z,16.40
2023-02-19T09:36:39.001Z,14.40
2023-02-19T09:41:47.914Z,7.97
2023-02-19T09:46:52.388Z,7.47
2023-02-19T09:52:04.395Z,10.32
2023-02-19T09:57:17.190Z,10.98
2023-02-19T10:02:24.295Z,10.25
2023-02-19T10:07:35.577Z,9.18
2023-02-19T10:12:50.627Z,9.70
2023-02-19T10:17:53.275Z,9.77
2023-02-19T10:22:59.451Z,6.72
2023-02-19T10:28:04.872Z,8.63
2023-02-19T10:33:14.627Z,9.52
2023-02-19T10:38:18.516Z,8.50
2023-02-19T10:43:31.625Z,7.90
2023-02-19T10:48:37.841Z,7.43
2023-02-19T10:53:46.406Z,8.48
2023-02-19T10:58:49.385Z,6.40
2023-02-19T11:03:53.792Z,5.43
2023-02-19T11:08:59.023Z,5.43
2023-02-19T11:14:12.895Z,3.85
2023-02-19T11:19:29.359Z,3.28
2023-02-19T11:24:37.609Z,3.50
2023-02-19T11:29:40.895Z,4.55
2023-02-19T11:35:23.032Z,4.70
2023-02-19T11:40:39.196Z,5.38
2023-02-19T11:45:46.107Z,6.35
2023-02-19T11:51:05.989Z,8.77
2023-02-19T11:56:16.784Z,6.53
2023-02-19T12:01:30.583Z,8.38
2023-02-19T12:06:48.275Z,5.78
2023-02-19T12:12:12.346Z,7.15
2023-02-19T12:17:15.166Z,8.95
2023-02-19T12:22:33.086Z,6.93
2023-02-19T12:28:02.125Z,9.82
2023-02-19T12:33:38.548Z,6.05
2023-02-19T12:38:49.005Z,4.50
2023-02-19T12:44:13.212Z,7.45
2023-02-19T12:54:29.847Z,7.40
2023-02-19T12:59:56.137Z,3.70
2023-02-19T13:05:05.251Z,7.55
2023-02-19T13:10:31.278Z,5.78
2023-02-19T13:15:42.508Z,3.65
2023-02-19T13:20:46.726Z,5.35
2023-02-19T13:26:20.809Z,3.65
2023-02-19T13:36:45.256Z,3.85
2023-02-19T13:41:56.018Z,5.57
2023-02-19T13:47:01.024Z,4.68
2023-02-19T13:52:29.552Z,4.63
2023-02-19T13:57:32.283Z,6.82
2023-02-19T14:02:35.380Z,3.38
2023-02-19T14:07:53.155Z,6.05
2023-02-19T14:12:55.696Z,6.03
2023-02-19T14:17:58.552Z,4.63
2023-02-19T14:23:14.517Z,4.60
2023-02-19T14:28:33.729Z,4.10
2023-02-19T14:33:40.156Z,4.43
2023-02-19T14:38:54.844Z,7.65
2023-02-19T14:43:58.112Z,5.43
2023-02-19T14:49:06.742Z,6.20
2023-02-19T14:54:21.600Z,7.88
2023-02-19T14:59:28.372Z,5.93
2023-02-19T15:04:36.725Z,3.92
2023-02-19T15:09:48.358Z,6.65
2023-02-19T15:14:54.411Z,4.45
2023-02-19T15:20:00.306Z,4.32
2023-02-19T15:25:04.027Z,3.97
2023-02-19T15:30:27.532Z,3.40
2023-02-19T15:35:34.086Z,2.05
2023-02-19T15:40:37.209Z,3.75
2023-02-19T15:45:41.946Z,2.00
2023-02-19T15:50:52.464Z,4.13
2023-02-19T15:56:30.542Z,3.15
2023-02-19T16:01:38.325Z,4.30
2023-02-19T16:07:02.044Z,4.22
2023-02-19T16:12:22.481Z,5.97
2023-02-19T16:17:31.301Z,3.28
2023-02-19T16:22:41.531Z,4.35
2023-02-19T16:27:45.399Z,4.38
2023-02-19T16:32:47.982Z,4.07
2023-02-19T16:37:58.890Z,2.78
2023-02-19T16:43:23.932Z,3.72
2023-02-19T16:48:26.582Z,3.40
2023-02-19T16:53:29.491Z,5.55
2023-02-19T16:58:32.069Z,5.18
2023-02-19T17:03:34.680Z,5.22
2023-02-19T17:08:39.069Z,6.05
2023-02-19T17:13:42.591Z,9.20
2023-02-19T17:18:45.197Z,8.23
2023-02-19T17:23:50.141Z,5.78
2023-02-19T17:28:52.685Z,7.25
2023-02-19T17:33:55.836Z,7.80
2023-02-19T17:39:00.022Z,9.07
2023-02-19T17:44:03.690Z,11.57
2023-02-19T17:49:07.614Z,7.33
2023-02-19T17:54:10.912Z,12.50
2023-02-19T17:59:13.868Z,13.02
2023-02-19T18:04:16.568Z,10.75
2023-02-19T18:09:21.474Z,14.30
2023-02-19T18:14:24.098Z,10.00
2023-02-19T18:19:26.748Z,10.38
2023-02-19T18:24:34.002Z,10.52
2023-02-19T18:29:36.583Z,9.68
2023-02-19T18:34:41.547Z,6.82
2023-02-19T18:39:45.229Z,7.50
2023-02-19T18:44:56.021Z,8.88
2023-02-19T18:49:59.484Z,7.55
2023-02-19T18:55:02.338Z,8.20
2023-02-19T19:00:06.715Z,11.15
2023-02-19T19:05:09.373Z,9.15
2023-02-19T19:10:12.055Z,11.30
2023-02-19T19:15:18.047Z,10.82
2023-02-19T19:20:23.017Z,9.38
2023-02-19T19:30:28.596Z,6.78
2023-02-19T19:35:31.317Z,7.07
2023-02-19T19:40:34.035Z,9.20
2023-02-19T19:45:55.331Z,11.48
2023-02-19T19:50:57.941Z,8.65
2023-02-19T19:56:01.224Z,8.27
2023-02-19T20:01:06.006Z,8.88
2023-02-19T20:06:15.552Z,8.02
2023-02-19T20:11:18.036Z,9.05
2023-02-19T20:16:25.894Z,7.85
2023-02-19T20:21:28.419Z,8.70
2023-02-19T20:26:32.104Z,10.38
2023-02-19T20:31:36.377Z,10.82
2023-02-19T20:36:44.609Z,6.78
2023-02-19T20:41:50.898Z,9.15
2023-02-19T20:46:54.275Z,6.88
2023-02-19T20:52:07.222Z,9.57
2023-02-19T20:57:09.897Z,7.22
2023-02-19T21:02:21.718Z,9.60
2023-02-19T21:07:25.233Z,13.27
2023-02-19T21:12:27.839Z,10.75
2023-02-19T21:17:30.473Z,10.98
2023-02-19T21:22:32.982Z,12.88
2023-02-19T21:27:35.565Z,18.33
2023-02-19T21:32:38.082Z,15.45
2023-02-19T21:37:44.569Z,14.32
2023-02-19T21:42:47.059Z,13.35
2023-02-19T21:47:52.185Z,17.90
2023-02-19T21:52:55.302Z,16.02
2023-02-19T21:57:58.123Z,17.27
2023-02-19T22:03:01.127Z,16.73
2023-02-19T22:08:05.496Z,18.40
2023-02-19T22:13:08.183Z,19.83
2023-02-19T22:18:10.803Z,16.27
2023-02-19T22:23:13.353Z,19.65
2023-02-19T22:28:16.046Z,18.38
2023-02-19T22:33:18.599Z,20.75
2023-02-19T22:38:21.360Z,24.45
2023-02-19T22:43:23.919Z,25.70
2023-02-19T22:48:30.186Z,20.17
2023-02-19T22:53:33.404Z,20.42
2023-02-19T22:58:36.605Z,22.15
2023-02-19T23:03:50.273Z,20.15
2023-02-19T23:08:54.396Z,24.17
2023-02-19T23:13:57.628Z,28.13
2023-02-19T23:19:12.069Z,23.50
2023-02-19T23:24:14.850Z,30.85
2023-02-19T23:29:19.900Z,31.52
2023-02-19T23:34:22.666Z,23.83
2023-02-19T23:39:25.288Z,32.53
2023-02-19T23:44:28.050Z,23.70
2023-02-19T23:49:30.672Z,25.65
2023-02-19T23:54:33.640Z,27.65
2023-02-19T23:59:36.343Z,30.48
